sensor_id;sensor_type;location;lat;lon;timestamp;temperature;humidity
18091;DHT22;9172;49.948;9.208;2023-01-04T00:01:33;7.20;99.90
18091;DHT22;9172;49.948;9.208;2023-01-04T00:04:04;7.20;99.90
18091;DHT22;9172;49.948;9.208;2023-01-04T00:06:34;7.20;99.90
18091;DHT22;9172;49.948;9.208;2023-01-04T00:09:10;7.20;99.90
18091;DHT22;9172;49.948;9.208;2023-01-04T00:11:47;7.20;99.90
18091;DHT22;9172;49.948;9.208;2023-01-04T00:14:15;7.20;99.90
18091;DHT22;9172;49.948;9.208;2023-01-04T00:16:46;7.20;99.90
18091;DHT22;9172;49.948;9.208;2023-01-04T00:19:17;7.20;99.90
18091;DHT22;9172;49.948;9.208;2023-01-04T00:21:53;7.20;99.90
18091;DHT22;9172;49.948;9.208;2023-01-04T00:24:23;7.20;99.90
18091;DHT22;9172;49.948;9.208;2023-01-04T00:26:52;7.20;99.90
18091;DHT22;9172;49.948;9.208;2023-01-04T00:29:24;7.10;99.90
18091;DHT22;9172;49.948;9.208;2023-01-04T00:31:52;7.10;99.90
18091;DHT22;9172;49.948;9.208;2023-01-04T00:34:22;7.10;99.90
18091;DHT22;9172;49.948;9.208;2023-01-04T00:37:06;7.00;99.90
18091;DHT22;9172;49.948;9.208;2023-01-04T00:39:38;7.10;99.90
18091;DHT22;9172;49.948;9.208;2023-01-04T00:42:10;7.10;99.90
18091;DHT22;9172;49.948;9.208;2023-01-04T00:44:41;7.10;99.90
18091;DHT22;9172;49.948;9.208;2023-01-04T00:47:09;7.10;99.90
18091;DHT22;9172;49.948;9.208;2023-01-04T00:49:39;7.10;99.90
18091;DHT22;9172;49.948;9.208;2023-01-04T00:52:10;7.10;99.90
18091;DHT22;9172;49.948;9.208;2023-01-04T00:54:39;7.10;99.90
18091;DHT22;9172;49.948;9.208;2023-01-04T00:57:08;7.10;99.90
18091;DHT22;9172;49.948;9.208;2023-01-04T00:59:37;7.10;99.90
18091;DHT22;9172;49.948;9.208;2023-01-04T01:02:05;7.10;99.90
18091;DHT22;9172;49.948;9.208;2023-01-04T01:04:35;7.10;99.90
18091;DHT22;9172;49.948;9.208;2023-01-04T01:07:08;7.10;99.90
18091;DHT22;9172;49.948;9.208;2023-01-04T01:09:38;7.00;99.90
18091;DHT22;9172;49.948;9.208;2023-01-04T01:12:10;7.00;99.90
18091;DHT22;9172;49.948;9.208;2023-01-04T01:14:40;7.10;99.90
18091;DHT22;9172;49.948;9.208;2023-01-04T01:17:10;7.10;99.90
18091;DHT22;9172;49.948;9.208;2023-01-04T01:19:39;7.10;99.90
18091;DHT22;9172;49.948;9.208;2023-01-04T01:22:08;7.10;99.90
18091;DHT22;9172;49.948;9.208;2023-01-04T01:24:37;7.10;99.90
18091;DHT22;9172;49.948;9.208;2023-01-04T01:27:06;7.10;99.90
18091;DHT22;9172;49.948;9.208;2023-01-04T01:29:35;7.10;99.90
18091;DHT22;9172;49.948;9.208;2023-01-04T01:32:04;7.10;99.90
18091;DHT22;9172;49.948;9.208;2023-01-04T01:34:33;7.10;99.90
18091;DHT22;9172;49.948;9.208;2023-01-04T01:37:02;7.10;99.90
18091;DHT22;9172;49.948;9.208;2023-01-04T01:39:33;7.10;99.90
18091;DHT22;9172;49.948;9.208;2023-01-04T01:42:02;7.10;99.90
18091;DHT22;9172;49.948;9.208;2023-01-04T01:44:53;7.10;99.90
18091;DHT22;9172;49.948;9.208;2023-01-04T01:47:23;7.00;99.90
18091;DHT22;9172;49.948;9.208;2023-01-04T01:49:59;7.00;99.90
18091;DHT22;9172;49.948;9.208;2023-01-04T01:52:30;7.10;99.90
18091;DHT22;9172;49.948;9.208;2023-01-04T01:55:02;7.10;99.90
18091;DHT22;9172;49.948;9.208;2023-01-04T01:57:34;7.10;99.90
18091;DHT22;9172;49.948;9.208;2023-01-04T02:00:08;7.10;99.90
18091;DHT22;9172;49.948;9.208;2023-01-04T02:02:38;7.10;99.90
18091;DHT22;9172;49.948;9.208;2023-01-04T02:05:13;7.10;99.90
18091;DHT22;9172;49.948;9.208;2023-01-04T02:07:43;7.10;99.90
18091;DHT22;9172;49.948;9.208;2023-01-04T02:10:12;7.10;99.90
18091;DHT22;9172;49.948;9.208;2023-01-04T02:12:42;7.10;99.90
18091;DHT22;9172;49.948;9.208;2023-01-04T02:15:11;7.10;99.90
18091;DHT22;9172;49.948;9.208;2023-01-04T02:17:44;7.10;99.90
18091;DHT22;9172;49.948;9.208;2023-01-04T02:20:25;7.10;99.90
18091;DHT22;9172;49.948;9.208;2023-01-04T02:23:05;7.10;99.90
18091;DHT22;9172;49.948;9.208;2023-01-04T02:32:03;7.10;99.90
18091;DHT22;9172;49.948;9.208;2023-01-04T02:34:37;7.10;99.90
18091;DHT22;9172;49.948;9.208;2023-01-04T02:37:09;7.10;99.90
18091;DHT22;9172;49.948;9.208;2023-01-04T02:39:42;7.10;99.90
18091;DHT22;9172;49.948;9.208;2023-01-04T02:42:15;7.10;99.90
18091;DHT22;9172;49.948;9.208;2023-01-04T02:44:47;7.10;99.90
18091;DHT22;9172;49.948;9.208;2023-01-04T02:47:23;7.20;99.90
18091;DHT22;9172;49.948;9.208;2023-01-04T02:50:21;7.10;99.90
18091;DHT22;9172;49.948;9.208;2023-01-04T02:53:01;7.20;99.90
18091;DHT22;9172;49.948;9.208;2023-01-04T02:55:39;7.20;99.90
18091;DHT22;9172;49.948;9.208;2023-01-04T02:58:07;7.20;99.90
18091;DHT22;9172;49.948;9.208;2023-01-04T03:00:45;7.20;99.90
18091;DHT22;9172;49.948;9.208;2023-01-04T03:03:35;7.20;99.90
18091;DHT22;9172;49.948;9.208;2023-01-04T03:06:27;7.30;99.90
18091;DHT22;9172;49.948;9.208;2023-01-04T03:08:59;7.30;99.90
18091;DHT22;9172;49.948;9.208;2023-01-04T03:11:34;7.30;99.90
18091;DHT22;9172;49.948;9.208;2023-01-04T03:14:24;7.30;99.90
18091;DHT22;9172;49.948;9.208;2023-01-04T03:16:56;7.30;99.90
18091;DHT22;9172;49.948;9.208;2023-01-04T03:19:27;7.30;99.90
18091;DHT22;9172;49.948;9.208;2023-01-04T03:22:16;7.30;99.90
18091;DHT22;9172;49.948;9.208;2023-01-04T03:25:05;7.30;99.90
18091;DHT22;9172;49.948;9.208;2023-01-04T03:27:54;7.30;99.90
18091;DHT22;9172;49.948;9.208;2023-01-04T03:30:45;7.40;99.90
18091;DHT22;9172;49.948;9.208;2023-01-04T03:33:33;7.40;99.90
18091;DHT22;9172;49.948;9.208;2023-01-04T03:36:27;7.40;99.90
18091;DHT22;9172;49.948;9.208;2023-01-04T03:38:59;7.30;99.90
18091;DHT22;9172;49.948;9.208;2023-01-04T03:41:49;7.40;99.90
18091;DHT22;9172;49.948;9.208;2023-01-04T03:44:40;7.30;99.90
18091;DHT22;9172;49.948;9.208;2023-01-04T03:47:28;7.30;99.90
18091;DHT22;9172;49.948;9.208;2023-01-04T03:50:18;7.30;99.90
18091;DHT22;9172;49.948;9.208;2023-01-04T03:52:49;7.30;99.90
18091;DHT22;9172;49.948;9.208;2023-01-04T03:55:20;7.30;99.90
18091;DHT22;9172;49.948;9.208;2023-01-04T03:57:49;7.30;99.90
18091;DHT22;9172;49.948;9.208;2023-01-04T04:00:19;7.30;99.90
18091;DHT22;9172;49.948;9.208;2023-01-04T04:02:48;7.40;99.90
18091;DHT22;9172;49.948;9.208;2023-01-04T04:05:18;7.40;99.90
18091;DHT22;9172;49.948;9.208;2023-01-04T04:08:05;7.40;99.90
18091;DHT22;9172;49.948;9.208;2023-01-04T04:10:55;7.40;99.90
18091;DHT22;9172;49.948;9.208;2023-01-04T04:13:25;7.40;99.90
18091;DHT22;9172;49.948;9.208;2023-01-04T04:15:54;7.40;99.90
18091;DHT22;9172;49.948;9.208;2023-01-04T04:18:24;7.30;99.90
18091;DHT22;9172;49.948;9.208;2023-01-04T04:20:57;7.30;99.90
18091;DHT22;9172;49.948;9.208;2023-01-04T04:23:26;7.30;99.90
18091;DHT22;9172;49.948;9.208;2023-01-04T04:25:54;7.30;99.90
18091;DHT22;9172;49.948;9.208;2023-01-04T04:28:23;7.30;99.90
18091;DHT22;9172;49.948;9.208;2023-01-04T04:30:53;7.40;99.90
18091;DHT22;9172;49.948;9.208;2023-01-04T04:33:21;7.40;99.90
18091;DHT22;9172;49.948;9.208;2023-01-04T04:35:51;7.40;99.90
18091;DHT22;9172;49.948;9.208;2023-01-04T04:38:21;7.40;99.90
18091;DHT22;9172;49.948;9.208;2023-01-04T04:40:49;7.40;99.90
18091;DHT22;9172;49.948;9.208;2023-01-04T04:43:36;7.40;99.90
18091;DHT22;9172;49.948;9.208;2023-01-04T04:46:05;7.40;99.90
18091;DHT22;9172;49.948;9.208;2023-01-04T04:48:33;7.40;99.90
18091;DHT22;9172;49.948;9.208;2023-01-04T04:51:02;7.40;99.90
18091;DHT22;9172;49.948;9.208;2023-01-04T04:53:31;7.40;99.90
18091;DHT22;9172;49.948;9.208;2023-01-04T04:56:00;7.40;99.90
18091;DHT22;9172;49.948;9.208;2023-01-04T04:58:30;7.40;99.90
18091;DHT22;9172;49.948;9.208;2023-01-04T05:00:59;7.40;99.90
18091;DHT22;9172;49.948;9.208;2023-01-04T05:03:28;7.40;99.90
18091;DHT22;9172;49.948;9.208;2023-01-04T05:05:57;7.40;99.90
18091;DHT22;9172;49.948;9.208;2023-01-04T05:08:26;7.40;99.90
18091;DHT22;9172;49.948;9.208;2023-01-04T05:10:55;7.40;99.90
18091;DHT22;9172;49.948;9.208;2023-01-04T05:13:24;7.40;99.90
18091;DHT22;9172;49.948;9.208;2023-01-04T05:15:53;7.40;99.90
18091;DHT22;9172;49.948;9.208;2023-01-04T05:18:22;7.40;99.90
18091;DHT22;9172;49.948;9.208;2023-01-04T05:20:51;7.40;99.90
18091;DHT22;9172;49.948;9.208;2023-01-04T05:23:20;7.40;99.90
18091;DHT22;9172;49.948;9.208;2023-01-04T05:25:52;7.40;99.90
18091;DHT22;9172;49.948;9.208;2023-01-04T05:28:21;7.40;99.90
18091;DHT22;9172;49.948;9.208;2023-01-04T05:30:50;7.30;99.90
18091;DHT22;9172;49.948;9.208;2023-01-04T05:33:24;7.40;99.90
18091;DHT22;9172;49.948;9.208;2023-01-04T05:35:54;7.40;99.90
18091;DHT22;9172;49.948;9.208;2023-01-04T05:38:24;7.40;99.90
18091;DHT22;9172;49.948;9.208;2023-01-04T05:40:53;7.30;99.90
18091;DHT22;9172;49.948;9.208;2023-01-04T05:43:23;7.30;99.90
18091;DHT22;9172;49.948;9.208;2023-01-04T05:45:53;7.30;99.90
18091;DHT22;9172;49.948;9.208;2023-01-04T05:48:24;7.20;99.90
18091;DHT22;9172;49.948;9.208;2023-01-04T05:50:53;7.20;99.90
18091;DHT22;9172;49.948;9.208;2023-01-04T05:53:22;7.20;99.90
18091;DHT22;9172;49.948;9.208;2023-01-04T05:55:53;7.20;99.90
18091;DHT22;9172;49.948;9.208;2023-01-04T05:58:21;7.20;99.90
18091;DHT22;9172;49.948;9.208;2023-01-04T06:00:50;7.10;99.90
18091;DHT22;9172;49.948;9.208;2023-01-04T06:03:19;7.10;99.90
18091;DHT22;9172;49.948;9.208;2023-01-04T06:05:50;7.10;99.90
18091;DHT22;9172;49.948;9.208;2023-01-04T06:08:19;7.10;99.90
18091;DHT22;9172;49.948;9.208;2023-01-04T06:10:53;7.10;99.90
18091;DHT22;9172;49.948;9.208;2023-01-04T06:13:23;7.10;99.90
18091;DHT22;9172;49.948;9.208;2023-01-04T06:15:51;7.10;99.90
18091;DHT22;9172;49.948;9.208;2023-01-04T06:18:21;7.10;99.90
18091;DHT22;9172;49.948;9.208;2023-01-04T06:20:51;7.00;99.90
18091;DHT22;9172;49.948;9.208;2023-01-04T06:23:20;7.00;99.90
18091;DHT22;9172;49.948;9.208;2023-01-04T06:25:49;7.00;99.90
18091;DHT22;9172;49.948;9.208;2023-01-04T06:28:17;7.00;99.90
18091;DHT22;9172;49.948;9.208;2023-01-04T06:33:24;7.00;99.90
18091;DHT22;9172;49.948;9.208;2023-01-04T06:35:58;7.00;99.90
18091;DHT22;9172;49.948;9.208;2023-01-04T06:38:29;7.00;99.90
18091;DHT22;9172;49.948;9.208;2023-01-04T06:40:57;7.00;99.90
18091;DHT22;9172;49.948;9.208;2023-01-04T06:43:26;7.00;99.90
18091;DHT22;9172;49.948;9.208;2023-01-04T06:45:56;7.00;99.90
18091;DHT22;9172;49.948;9.208;2023-01-04T06:48:27;7.00;99.90
18091;DHT22;9172;49.948;9.208;2023-01-04T06:50:59;7.00;99.90
18091;DHT22;9172;49.948;9.208;2023-01-04T06:53:29;7.00;99.90
18091;DHT22;9172;49.948;9.208;2023-01-04T06:55:59;7.00;99.90
18091;DHT22;9172;49.948;9.208;2023-01-04T06:58:30;7.00;99.90
18091;DHT22;9172;49.948;9.208;2023-01-04T07:00:58;7.00;99.90
18091;DHT22;9172;49.948;9.208;2023-01-04T07:03:27;7.00;99.90
18091;DHT22;9172;49.948;9.208;2023-01-04T07:05:57;7.00;99.90
18091;DHT22;9172;49.948;9.208;2023-01-04T07:08:30;7.00;99.90
18091;DHT22;9172;49.948;9.208;2023-01-04T07:10:59;7.10;99.90
18091;DHT22;9172;49.948;9.208;2023-01-04T07:13:28;7.00;99.90
18091;DHT22;9172;49.948;9.208;2023-01-04T07:15:57;7.20;99.90
18091;DHT22;9172;49.948;9.208;2023-01-04T07:18:26;7.10;99.90
18091;DHT22;9172;49.948;9.208;2023-01-04T07:20:57;7.10;99.90
18091;DHT22;9172;49.948;9.208;2023-01-04T07:23:26;7.10;99.90
18091;DHT22;9172;49.948;9.208;2023-01-04T07:25:55;7.10;99.90
18091;DHT22;9172;49.948;9.208;2023-01-04T07:28:26;7.10;99.90
18091;DHT22;9172;49.948;9.208;2023-01-04T07:31:22;7.10;99.90
18091;DHT22;9172;49.948;9.208;2023-01-04T07:33:52;7.10;99.90
18091;DHT22;9172;49.948;9.208;2023-01-04T07:36:20;7.10;99.90
18091;DHT22;9172;49.948;9.208;2023-01-04T07:38:49;7.20;99.90
18091;DHT22;9172;49.948;9.208;2023-01-04T07:41:19;7.20;99.90
18091;DHT22;9172;49.948;9.208;2023-01-04T07:43:49;7.20;99.90
18091;DHT22;9172;49.948;9.208;2023-01-04T07:46:20;7.20;99.90
18091;DHT22;9172;49.948;9.208;2023-01-04T07:48:49;7.20;99.90
18091;DHT22;9172;49.948;9.208;2023-01-04T07:51:18;7.20;99.90
18091;DHT22;9172;49.948;9.208;2023-01-04T07:53:48;7.20;99.90
18091;DHT22;9172;49.948;9.208;2023-01-04T07:56:19;7.20;99.90
18091;DHT22;9172;49.948;9.208;2023-01-04T07:58:49;7.30;99.90
18091;DHT22;9172;49.948;9.208;2023-01-04T08:01:19;7.30;99.90
18091;DHT22;9172;49.948;9.208;2023-01-04T08:03:48;7.30;99.90
18091;DHT22;9172;49.948;9.208;2023-01-04T08:06:18;7.30;99.90
18091;DHT22;9172;49.948;9.208;2023-01-04T08:08:47;7.30;99.90
18091;DHT22;9172;49.948;9.208;2023-01-04T08:11:19;7.30;99.90
18091;DHT22;9172;49.948;9.208;2023-01-04T08:13:50;7.30;99.90
18091;DHT22;9172;49.948;9.208;2023-01-04T08:16:22;7.40;99.90
18091;DHT22;9172;49.948;9.208;2023-01-04T08:18:55;7.40;99.90
18091;DHT22;9172;49.948;9.208;2023-01-04T08:21:24;7.40;99.90
18091;DHT22;9172;49.948;9.208;2023-01-04T08:23:54;7.40;99.90
18091;DHT22;9172;49.948;9.208;2023-01-04T08:26:23;7.40;99.90
18091;DHT22;9172;49.948;9.208;2023-01-04T08:28:52;7.40;99.90
18091;DHT22;9172;49.948;9.208;2023-01-04T08:31:26;7.40;99.90
18091;DHT22;9172;49.948;9.208;2023-01-04T08:36:34;7.50;99.90
18091;DHT22;9172;49.948;9.208;2023-01-04T08:41:42;7.50;99.90
18091;DHT22;9172;49.948;9.208;2023-01-04T08:44:22;7.50;99.90
18091;DHT22;9172;49.948;9.208;2023-01-04T08:46:52;7.50;99.90
18091;DHT22;9172;49.948;9.208;2023-01-04T08:49:21;7.60;99.90
18091;DHT22;9172;49.948;9.208;2023-01-04T08:51:51;7.60;99.90
18091;DHT22;9172;49.948;9.208;2023-01-04T08:54:19;7.60;99.90
18091;DHT22;9172;49.948;9.208;2023-01-04T08:56:49;7.60;99.90
18091;DHT22;9172;49.948;9.208;2023-01-04T08:59:18;7.60;99.90
18091;DHT22;9172;49.948;9.208;2023-01-04T09:01:47;7.60;99.90
18091;DHT22;9172;49.948;9.208;2023-01-04T09:04:17;7.70;99.90
18091;DHT22;9172;49.948;9.208;2023-01-04T09:06:45;7.70;99.90
18091;DHT22;9172;49.948;9.208;2023-01-04T09:09:15;7.70;99.90
18091;DHT22;9172;49.948;9.208;2023-01-04T09:11:45;7.70;99.90
18091;DHT22;9172;49.948;9.208;2023-01-04T09:14:13;7.70;99.90
18091;DHT22;9172;49.948;9.208;2023-01-04T09:16:44;7.70;99.90
18091;DHT22;9172;49.948;9.208;2023-01-04T09:19:13;7.70;99.90
18091;DHT22;9172;49.948;9.208;2023-01-04T09:21:42;7.70;99.90
18091;DHT22;9172;49.948;9.208;2023-01-04T09:24:12;7.80;99.90
18091;DHT22;9172;49.948;9.208;2023-01-04T09:26:41;7.80;99.90
18091;DHT22;9172;49.948;9.208;2023-01-04T09:29:10;7.80;99.90
18091;DHT22;9172;49.948;9.208;2023-01-04T09:31:40;7.90;99.90
18091;DHT22;9172;49.948;9.208;2023-01-04T09:34:11;7.90;99.90
18091;DHT22;9172;49.948;9.208;2023-01-04T09:36:40;7.90;99.90
18091;DHT22;9172;49.948;9.208;2023-01-04T09:39:09;7.90;99.90
18091;DHT22;9172;49.948;9.208;2023-01-04T09:41:42;7.90;99.90
18091;DHT22;9172;49.948;9.208;2023-01-04T09:44:16;7.90;99.90
18091;DHT22;9172;49.948;9.208;2023-01-04T09:46:47;7.90;99.90
18091;DHT22;9172;49.948;9.208;2023-01-04T09:49:19;7.90;99.90
18091;DHT22;9172;49.948;9.208;2023-01-04T09:51:52;7.90;99.90
18091;DHT22;9172;49.948;9.208;2023-01-04T09:54:25;7.80;99.90
18091;DHT22;9172;49.948;9.208;2023-01-04T09:56:55;7.80;99.90
18091;DHT22;9172;49.948;9.208;2023-01-04T09:59:28;7.90;99.90
18091;DHT22;9172;49.948;9.208;2023-01-04T10:02:02;7.90;99.90
18091;DHT22;9172;49.948;9.208;2023-01-04T10:04:39;7.90;99.90
18091;DHT22;9172;49.948;9.208;2023-01-04T10:07:07;7.90;99.90
18091;DHT22;9172;49.948;9.208;2023-01-04T10:09:37;7.90;99.90
18091;DHT22;9172;49.948;9.208;2023-01-04T10:12:13;7.90;99.90
18091;DHT22;9172;49.948;9.208;2023-01-04T10:14:49;7.90;99.90
18091;DHT22;9172;49.948;9.208;2023-01-04T10:17:25;7.90;99.90
18091;DHT22;9172;49.948;9.208;2023-01-04T10:20:13;7.90;99.90
18091;DHT22;9172;49.948;9.208;2023-01-04T10:22:45;8.00;99.90
18091;DHT22;9172;49.948;9.208;2023-01-04T10:25:23;8.00;99.90
18091;DHT22;9172;49.948;9.208;2023-01-04T10:28:10;8.00;99.90
18091;DHT22;9172;49.948;9.208;2023-01-04T10:30:37;8.00;99.90
18091;DHT22;9172;49.948;9.208;2023-01-04T10:33:10;8.10;99.90
18091;DHT22;9172;49.948;9.208;2023-01-04T10:35:39;8.00;99.90
18091;DHT22;9172;49.948;9.208;2023-01-04T10:38:14;8.10;99.90
18091;DHT22;9172;49.948;9.208;2023-01-04T10:40:45;8.10;99.90
18091;DHT22;9172;49.948;9.208;2023-01-04T10:43:20;8.10;99.90
18091;DHT22;9172;49.948;9.208;2023-01-04T10:45:53;8.10;99.90
18091;DHT22;9172;49.948;9.208;2023-01-04T10:48:26;8.10;99.90
18091;DHT22;9172;49.948;9.208;2023-01-04T10:50:57;8.10;99.90
18091;DHT22;9172;49.948;9.208;2023-01-04T10:53:28;8.20;99.90
18091;DHT22;9172;49.948;9.208;2023-01-04T10:56:00;8.20;99.90
18091;DHT22;9172;49.948;9.208;2023-01-04T10:58:32;8.20;99.90
18091;DHT22;9172;49.948;9.208;2023-01-04T11:01:03;8.20;99.90
18091;DHT22;9172;49.948;9.208;2023-01-04T11:03:36;8.20;99.90
18091;DHT22;9172;49.948;9.208;2023-01-04T11:06:15;8.20;99.90
18091;DHT22;9172;49.948;9.208;2023-01-04T11:08:43;8.20;99.90
18091;DHT22;9172;49.948;9.208;2023-01-04T11:11:16;8.20;99.90
18091;DHT22;9172;49.948;9.208;2023-01-04T11:13:44;8.20;99.90
18091;DHT22;9172;49.948;9.208;2023-01-04T11:16:14;8.20;99.90
18091;DHT22;9172;49.948;9.208;2023-01-04T11:18:43;8.20;99.90
18091;DHT22;9172;49.948;9.208;2023-01-04T11:21:16;8.30;99.90
18091;DHT22;9172;49.948;9.208;2023-01-04T11:23:44;8.30;99.90
18091;DHT22;9172;49.948;9.208;2023-01-04T11:26:16;8.30;99.90
18091;DHT22;9172;49.948;9.208;2023-01-04T11:28:50;8.30;99.90
18091;DHT22;9172;49.948;9.208;2023-01-04T11:31:23;8.30;99.90
18091;DHT22;9172;49.948;9.208;2023-01-04T11:33:54;8.30;99.90
18091;DHT22;9172;49.948;9.208;2023-01-04T11:36:34;8.30;99.90
18091;DHT22;9172;49.948;9.208;2023-01-04T11:39:04;8.30;99.90
18091;DHT22;9172;49.948;9.208;2023-01-04T11:41:34;8.30;99.90
18091;DHT22;9172;49.948;9.208;2023-01-04T11:44:05;8.40;99.90
18091;DHT22;9172;49.948;9.208;2023-01-04T11:46:35;8.40;99.90
18091;DHT22;9172;49.948;9.208;2023-01-04T11:49:04;8.40;99.90
18091;DHT22;9172;49.948;9.208;2023-01-04T11:51:37;8.40;99.90
18091;DHT22;9172;49.948;9.208;2023-01-04T11:54:19;8.40;99.90
18091;DHT22;9172;49.948;9.208;2023-01-04T11:56:59;8.40;99.90
18091;DHT22;9172;49.948;9.208;2023-01-04T11:59:29;8.50;99.90
18091;DHT22;9172;49.948;9.208;2023-01-04T12:02:17;8.50;99.90
18091;DHT22;9172;49.948;9.208;2023-01-04T12:04:47;8.40;99.90
18091;DHT22;9172;49.948;9.208;2023-01-04T12:07:23;8.40;99.90
18091;DHT22;9172;49.948;9.208;2023-01-04T12:09:53;8.50;99.90
18091;DHT22;9172;49.948;9.208;2023-01-04T12:12:24;8.50;99.90
18091;DHT22;9172;49.948;9.208;2023-01-04T12:14:55;8.50;99.90
18091;DHT22;9172;49.948;9.208;2023-01-04T12:17:26;8.50;99.90
18091;DHT22;9172;49.948;9.208;2023-01-04T12:19:57;8.50;99.90
18091;DHT22;9172;49.948;9.208;2023-01-04T12:22:30;8.50;99.90
18091;DHT22;9172;49.948;9.208;2023-01-04T12:25:00;8.60;99.90
18091;DHT22;9172;49.948;9.208;2023-01-04T12:27:29;8.60;99.90
18091;DHT22;9172;49.948;9.208;2023-01-04T12:30:06;8.60;99.90
18091;DHT22;9172;49.948;9.208;2023-01-04T12:32:42;8.60;99.90
18091;DHT22;9172;49.948;9.208;2023-01-04T12:38:57;8.60;99.90
18091;DHT22;9172;49.948;9.208;2023-01-04T12:45:26;8.70;99.90
18091;DHT22;9172;49.948;9.208;2023-01-04T12:47:55;8.70;99.90
18091;DHT22;9172;49.948;9.208;2023-01-04T12:53:58;8.70;99.90
18091;DHT22;9172;49.948;9.208;2023-01-04T12:59:36;8.80;99.90
18091;DHT22;9172;49.948;9.208;2023-01-04T13:02:20;8.80;99.90
18091;DHT22;9172;49.948;9.208;2023-01-04T13:04:51;8.80;99.90
18091;DHT22;9172;49.948;9.208;2023-01-04T13:07:24;8.80;99.90
18091;DHT22;9172;49.948;9.208;2023-01-04T13:09:57;8.80;99.90
18091;DHT22;9172;49.948;9.208;2023-01-04T13:15:29;8.90;99.90
18091;DHT22;9172;49.948;9.208;2023-01-04T13:17:58;8.90;99.90
18091;DHT22;9172;49.948;9.208;2023-01-04T13:20:28;8.90;99.90
18091;DHT22;9172;49.948;9.208;2023-01-04T13:22:58;8.90;99.90
18091;DHT22;9172;49.948;9.208;2023-01-04T13:25:27;8.90;99.90
18091;DHT22;9172;49.948;9.208;2023-01-04T13:28:00;8.90;99.90
18091;DHT22;9172;49.948;9.208;2023-01-04T13:30:32;8.80;99.90
18091;DHT22;9172;49.948;9.208;2023-01-04T13:33:08;8.80;99.90
18091;DHT22;9172;49.948;9.208;2023-01-04T13:35:38;8.80;99.90
18091;DHT22;9172;49.948;9.208;2023-01-04T13:38:13;8.80;99.90
18091;DHT22;9172;49.948;9.208;2023-01-04T13:40:44;8.70;99.90
18091;DHT22;9172;49.948;9.208;2023-01-04T13:43:30;8.80;99.90
18091;DHT22;9172;49.948;9.208;2023-01-04T13:46:10;8.70;99.90
18091;DHT22;9172;49.948;9.208;2023-01-04T13:48:41;8.70;99.90
18091;DHT22;9172;49.948;9.208;2023-01-04T13:51:15;8.70;99.90
18091;DHT22;9172;49.948;9.208;2023-01-04T13:53:52;8.70;99.90
18091;DHT22;9172;49.948;9.208;2023-01-04T13:56:23;8.70;99.90
18091;DHT22;9172;49.948;9.208;2023-01-04T13:58:53;8.70;99.90
18091;DHT22;9172;49.948;9.208;2023-01-04T14:01:24;8.70;99.90
18091;DHT22;9172;49.948;9.208;2023-01-04T14:03:55;8.70;99.90
18091;DHT22;9172;49.948;9.208;2023-01-04T14:06:27;8.70;99.90
18091;DHT22;9172;49.948;9.208;2023-01-04T14:09:04;8.70;99.90
18091;DHT22;9172;49.948;9.208;2023-01-04T14:11:39;8.70;99.90
18091;DHT22;9172;49.948;9.208;2023-01-04T14:14:44;8.60;99.90
18091;DHT22;9172;49.948;9.208;2023-01-04T14:17:20;8.70;99.90
18091;DHT22;9172;49.948;9.208;2023-01-04T14:19:54;8.70;99.90
18091;DHT22;9172;49.948;9.208;2023-01-04T14:22:32;8.70;99.90
18091;DHT22;9172;49.948;9.208;2023-01-04T14:25:01;8.70;99.90
18091;DHT22;9172;49.948;9.208;2023-01-04T14:27:32;8.70;99.90
18091;DHT22;9172;49.948;9.208;2023-01-04T14:30:13;8.80;99.90
18091;DHT22;9172;49.948;9.208;2023-01-04T14:32:50;8.80;99.90
18091;DHT22;9172;49.948;9.208;2023-01-04T14:35:19;8.70;99.90
18091;DHT22;9172;49.948;9.208;2023-01-04T14:37:48;8.80;99.90
18091;DHT22;9172;49.948;9.208;2023-01-04T14:40:22;8.80;99.90
18091;DHT22;9172;49.948;9.208;2023-01-04T14:42:52;8.80;99.90
18091;DHT22;9172;49.948;9.208;2023-01-04T14:45:21;8.80;99.90
18091;DHT22;9172;49.948;9.208;2023-01-04T14:47:49;8.80;99.90
18091;DHT22;9172;49.948;9.208;2023-01-04T14:50:18;8.80;99.90
18091;DHT22;9172;49.948;9.208;2023-01-04T14:52:51;8.80;99.90
18091;DHT22;9172;49.948;9.208;2023-01-04T14:55:20;8.80;99.90
18091;DHT22;9172;49.948;9.208;2023-01-04T14:57:51;8.80;99.90
18091;DHT22;9172;49.948;9.208;2023-01-04T15:00:20;8.80;99.90
18091;DHT22;9172;49.948;9.208;2023-01-04T15:02:49;8.80;99.90
18091;DHT22;9172;49.948;9.208;2023-01-04T15:05:18;8.80;99.90
18091;DHT22;9172;49.948;9.208;2023-01-04T15:07:47;8.90;99.90
18091;DHT22;9172;49.948;9.208;2023-01-04T15:10:21;8.90;99.90
18091;DHT22;9172;49.948;9.208;2023-01-04T15:12:50;8.90;99.90
18091;DHT22;9172;49.948;9.208;2023-01-04T15:15:19;8.90;99.90
18091;DHT22;9172;49.948;9.208;2023-01-04T15:17:49;8.90;99.90
18091;DHT22;9172;49.948;9.208;2023-01-04T15:20:18;8.90;99.90
18091;DHT22;9172;49.948;9.208;2023-01-04T15:22:46;8.90;99.90
18091;DHT22;9172;49.948;9.208;2023-01-04T15:25:19;9.00;99.90
18091;DHT22;9172;49.948;9.208;2023-01-04T15:27:49;9.00;99.90
18091;DHT22;9172;49.948;9.208;2023-01-04T15:30:19;9.00;99.90
18091;DHT22;9172;49.948;9.208;2023-01-04T15:32:48;9.00;99.90
18091;DHT22;9172;49.948;9.208;2023-01-04T15:37:55;9.00;99.90
18091;DHT22;9172;49.948;9.208;2023-01-04T15:40:24;9.00;99.90
18091;DHT22;9172;49.948;9.208;2023-01-04T15:42:52;9.10;99.90
18091;DHT22;9172;49.948;9.208;2023-01-04T15:48:17;9.10;99.90
18091;DHT22;9172;49.948;9.208;2023-01-04T15:50:46;9.10;99.90
18091;DHT22;9172;49.948;9.208;2023-01-04T15:53:23;9.10;99.90
18091;DHT22;9172;49.948;9.208;2023-01-04T15:55:53;9.10;99.90
18091;DHT22;9172;49.948;9.208;2023-01-04T16:01:10;9.20;99.90
18091;DHT22;9172;49.948;9.208;2023-01-04T16:03:40;9.20;99.90
18091;DHT22;9172;49.948;9.208;2023-01-04T16:06:11;9.20;99.90
18091;DHT22;9172;49.948;9.208;2023-01-04T16:08:41;9.20;99.90
18091;DHT22;9172;49.948;9.208;2023-01-04T16:11:14;9.20;99.90
18091;DHT22;9172;49.948;9.208;2023-01-04T16:13:45;9.20;99.90
18091;DHT22;9172;49.948;9.208;2023-01-04T16:16:14;9.20;99.90
18091;DHT22;9172;49.948;9.208;2023-01-04T16:18:46;9.20;99.90
18091;DHT22;9172;49.948;9.208;2023-01-04T16:21:16;9.20;99.90
18091;DHT22;9172;49.948;9.208;2023-01-04T16:23:50;9.20;99.90
18091;DHT22;9172;49.948;9.208;2023-01-04T16:26:19;9.30;99.90
18091;DHT22;9172;49.948;9.208;2023-01-04T16:28:50;9.30;99.90
18091;DHT22;9172;49.948;9.208;2023-01-04T16:31:20;9.30;99.90
18091;DHT22;9172;49.948;9.208;2023-01-04T16:33:52;9.30;99.90
18091;DHT22;9172;49.948;9.208;2023-01-04T16:36:21;9.30;99.90
18091;DHT22;9172;49.948;9.208;2023-01-04T16:38:50;9.30;99.90
18091;DHT22;9172;49.948;9.208;2023-01-04T16:41:20;9.40;99.90
18091;DHT22;9172;49.948;9.208;2023-01-04T16:43:51;9.40;99.90
18091;DHT22;9172;49.948;9.208;2023-01-04T16:46:23;9.40;99.90
18091;DHT22;9172;49.948;9.208;2023-01-04T16:48:53;9.40;99.90
18091;DHT22;9172;49.948;9.208;2023-01-04T16:51:22;9.40;99.90
18091;DHT22;9172;49.948;9.208;2023-01-04T16:53:56;9.40;99.90
18091;DHT22;9172;49.948;9.208;2023-01-04T16:56:25;9.40;99.90
18091;DHT22;9172;49.948;9.208;2023-01-04T16:58:54;9.40;99.90
18091;DHT22;9172;49.948;9.208;2023-01-04T17:01:24;9.50;99.90
18091;DHT22;9172;49.948;9.208;2023-01-04T17:03:55;9.50;99.90
18091;DHT22;9172;49.948;9.208;2023-01-04T17:06:25;9.50;99.90
18091;DHT22;9172;49.948;9.208;2023-01-04T17:08:56;9.50;99.90
18091;DHT22;9172;49.948;9.208;2023-01-04T17:11:26;9.60;99.90
18091;DHT22;9172;49.948;9.208;2023-01-04T17:13:56;9.50;99.90